Time;durP1;ratioP1;P1;durP2;ratioP2;P2;SDS_P1;SDS_P2;PMS_P1;PMS_P2;Temp;Humidity;BMP_temperature;BMP_pressure;BME280_temperature;BME280_humidity;BME280_pressure;Samples;Min_cycle;Max_cycle;Signal;HPM_P1;HPM_P2
2021/06/26 00:00:50;;;;;;;22.15;7.22;;;;;;;23.31;57.42;99639.22;5053869;28;20048;-66
2021/06/26 00:03:17;;;;;;;19.48;6.80;;;;;;;23.35;57.40;99631.81;5020199;28;20044;-65
2021/06/26 00:05:42;;;;;;;17.05;6.75;;;;;;;23.43;56.84;99632.06;5003070;28;20041;-65
2021/06/26 00:08:08;;;;;;;14.00;6.85;;;;;;;23.56;57.67;99632.81;5053979;28;20494;-65
2021/06/26 00:10:34;;;;;;;12.35;6.18;;;;;;;23.63;56.81;99626.03;5002211;28;20044;-67
2021/06/26 00:13:00;;;;;;;18.63;6.95;;;;;;;23.71;57.75;99633.41;5052969;28;20087;-66
2021/06/26 00:15:26;;;;;;;16.45;6.85;;;;;;;23.71;57.64;99638.75;5002453;28;20068;-67
2021/06/26 00:17:51;;;;;;;10.90;6.32;;;;;;;23.66;57.71;99633.78;5053111;28;20379;-66
2021/06/26 00:20:17;;;;;;;15.50;6.82;;;;;;;23.56;58.19;99624.81;5019000;28;20092;-67
2021/06/26 00:22:43;;;;;;;15.40;6.47;;;;;;;23.57;58.21;99617.66;5053165;28;20048;-67
2021/06/26 00:25:09;;;;;;;14.93;6.53;;;;;;;23.64;58.51;99627.72;5052322;28;20095;-66
2021/06/26 00:27:35;;;;;;;19.52;7.13;;;;;;;23.55;59.21;99620.44;5051927;28;20514;-65
2021/06/26 00:30:01;;;;;;;15.40;6.90;;;;;;;23.63;59.08;99642.03;5052278;28;20079;-64
2021/06/26 00:32:27;;;;;;;14.18;7.05;;;;;;;23.52;58.94;99642.03;5052569;28;20049;-65
2021/06/26 00:35:03;;;;;;;22.58;7.32;;;;;;;23.53;59.27;99634.84;5051346;28;20049;-66
2021/06/26 00:37:29;;;;;;;15.48;8.07;;;;;;;23.34;60.73;99619.44;5051527;28;20128;-66
2021/06/26 00:39:55;;;;;;;16.02;7.82;;;;;;;23.09;62.07;99621.38;5050853;28;20143;-67
2021/06/26 00:42:21;;;;;;;16.52;7.60;;;;;;;22.94;62.41;99633.22;5052555;28;20132;-64
2021/06/26 00:44:48;;;;;;;21.35;8.07;;;;;;;22.77;63.15;99620.28;5002409;28;20048;-66
2021/06/26 00:47:13;;;;;;;13.10;7.50;;;;;;;22.93;64.64;99633.31;5052482;28;20041;-67
2021/06/26 00:49:40;;;;;;;17.13;8.18;;;;;;;22.90;63.91;99630.91;5052213;28;20049;-65
2021/06/26 00:52:06;;;;;;;17.50;8.70;;;;;;;22.77;64.39;99628.28;5053627;28;20417;-65
2021/06/26 00:54:33;;;;;;;13.82;8.80;;;;;;;22.35;64.25;99587.94;5051735;28;20417;-66
2021/06/26 00:57:00;;;;;;;11.90;8.32;;;;;;;22.43;64.52;99612.19;5052267;28;20139;-66
2021/06/26 00:59:26;;;;;;;19.05;8.60;;;;;;;22.41;64.50;99619.44;5034498;28;20565;-66
2021/06/26 01:01:52;;;;;;;21.15;8.32;;;;;;;22.40;64.76;99615.09;5034593;28;20067;-66
2021/06/26 01:04:18;;;;;;;26.35;8.65;;;;;;;22.41;64.63;99614.13;5052138;28;20486;-65
2021/06/26 01:06:43;;;;;;;20.25;8.68;;;;;;;22.46;64.52;99617.28;5034905;28;20049;-64
2021/06/26 01:09:09;;;;;;;19.98;8.32;;;;;;;22.45;65.20;99620.06;5000507;28;20052;-66
2021/06/26 01:11:35;;;;;;;18.08;9.00;;;;;;;22.43;65.33;99616.66;5051575;28;20051;-65
2021/06/26 01:14:02;;;;;;;20.92;9.05;;;;;;;22.37;65.09;99601.97;5018179;28;20045;-66
2021/06/26 01:16:28;;;;;;;22.10;8.95;;;;;;;22.48;65.08;99619.84;5051451;28;20483;-65
2021/06/26 01:18:54;;;;;;;19.42;8.65;;;;;;;22.44;64.62;99608.56;5034063;28;20068;-65
2021/06/26 01:21:19;;;;;;;30.50;9.02;;;;;;;22.55;64.74;99625.56;5049810;28;20072;-65
2021/06/26 01:23:47;;;;;;;17.88;9.55;;;;;;;22.76;63.71;99624.78;5052396;28;20041;-66
2021/06/26 01:26:13;;;;;;;15.00;8.98;;;;;;;22.78;64.00;99622.84;5018670;28;20052;-65
2021/06/26 01:28:39;;;;;;;22.35;8.90;;;;;;;22.79;64.07;99627.19;5001108;28;20045;-66
2021/06/26 01:31:06;;;;;;;24.10;7.75;;;;;;;23.17;62.86;99611.94;5052081;28;20418;-65
2021/06/26 01:33:32;;;;;;;20.05;8.52;;;;;;;23.20;61.88;99627.69;5033201;28;20048;-65
2021/06/26 01:35:57;;;;;;;22.80;9.63;;;;;;;23.12;61.98;99630.97;5050909;28;20041;-66
2021/06/26 01:38:23;;;;;;;18.75;8.77;;;;;;;23.48;60.93;99635.22;5051043;28;20086;-66
2021/06/26 01:40:49;;;;;;;22.75;8.73;;;;;;;23.37;61.21;99633.41;5050515;28;20052;-65
2021/06/26 01:43:15;;;;;;;16.00;9.05;;;;;;;23.16;61.17;99620.91;5052495;28;20550;-65
2021/06/26 01:45:41;;;;;;;17.30;8.18;;;;;;;23.19;61.48;99634.00;5051842;28;20045;-65
2021/06/26 01:48:07;;;;;;;20.10;8.27;;;;;;;23.29;61.51;99626.97;5018158;28;20502;-67
2021/06/26 01:50:32;;;;;;;18.88;7.97;;;;;;;23.64;60.65;99627.72;5051023;28;20041;-66
2021/06/26 01:53:00;;;;;;;23.52;8.88;;;;;;;23.59;60.37;99613.91;5051736;28;20037;-66
2021/06/26 01:55:27;;;;;;;19.48;9.02;;;;;;;23.18;61.36;99601.13;5018498;28;20384;-67
2021/06/26 01:57:53;;;;;;;26.92;9.32;;;;;;;22.98;62.45;99602.66;5002093;28;20056;-67
2021/06/26 02:00:21;;;;;;;29.30;9.75;;;;;;;22.89;63.33;99608.72;5017726;28;20049;-62
2021/06/26 02:02:46;;;;;;;24.42;9.60;;;;;;;22.88;63.51;99609.69;5034462;28;20130;-66
2021/06/26 02:05:15;;;;;;;27.02;9.60;;;;;;;22.90;63.87;99609.56;5052156;28;20076;-66
2021/06/26 02:07:40;;;;;;;32.60;9.18;;;;;;;22.78;63.94;99595.31;5000922;28;20135;-65
2021/06/26 02:10:07;;;;;;;33.75;9.85;;;;;;;22.86;63.50;99606.28;5034540;28;20182;-66
2021/06/26 02:12:33;;;;;;;19.00;9.90;;;;;;;22.87;63.31;99610.66;5000671;28;20072;-66
2021/06/26 02:14:58;;;;;;;20.88;9.57;;;;;;;22.87;63.08;99599.13;5049778;28;20145;-65
2021/06/26 02:17:24;;;;;;;23.10;9.52;;;;;;;22.90;63.58;99610.41;5050208;28;20048;-67
2021/06/26 02:19:50;;;;;;;35.55;10.32;;;;;;;22.82;64.21;99603.00;5051536;28;20080;-67
2021/06/26 02:22:17;;;;;;;36.65;10.98;;;;;;;22.83;64.67;99593.19;5034632;28;20071;-66
2021/06/26 02:24:43;;;;;;;43.95;10.95;;;;;;;22.82;64.31;99607.47;5050427;28;20044;-66
2021/06/26 02:27:10;;;;;;;41.30;11.18;;;;;;;23.31;62.97;99601.00;5050081;28;20052;-65
2021/06/26 02:29:36;;;;;;;40.08;10.52;;;;;;;23.90;61.00;99606.94;5049070;28;20410;-66
2021/06/26 02:32:03;;;;;;;22.73;9.52;;;;;;;24.34;59.10;99605.97;4999508;28;20506;-64
2021/06/26 02:34:29;;;;;;;25.52;8.60;;;;;;;24.58;57.10;99602.25;5015474;28;20049;-64
2021/06/26 02:36:55;;;;;;;25.35;8.32;;;;;;;24.77;56.18;99607.75;5051197;28;20049;-65
2021/06/26 02:39:21;;;;;;;25.10;8.55;;;;;;;24.74;56.48;99613.34;5050392;28;20106;-66
2021/06/26 02:41:47;;;;;;;29.02;9.13;;;;;;;24.72;56.94;99618.00;5049355;28;20056;-64
2021/06/26 02:44:12;;;;;;;20.95;8.60;;;;;;;24.70;56.67;99614.59;5048827;28;20056;-66
2021/06/26 02:46:38;;;;;;;18.60;7.95;;;;;;;24.92;55.60;99618.97;5049646;28;20049;-67
2021/06/26 02:49:04;;;;;;;21.10;7.38;;;;;;;24.89;55.43;99617.41;5050075;28;20048;-65
2021/06/26 02:51:30;;;;;;;21.92;8.73;;;;;;;24.59;56.78;99601.28;5032584;28;20071;-64
2021/06/26 02:53:56;;;;;;;28.40;9.13;;;;;;;25.25;55.54;99605.38;5050423;28;20044;-63
2021/06/26 02:56:23;;;;;;;17.42;8.20;;;;;;;26.16;54.08;99609.81;5016906;28;20080;-65
2021/06/26 02:58:49;;;;;;;28.52;8.85;;;;;;;26.95;51.43;99603.47;5051315;28;20072;-67
2021/06/26 03:01:15;;;;;;;24.85;8.23;;;;;;;27.66;48.85;99611.91;5050376;28;20041;-68
2021/06/26 03:03:40;;;;;;;20.05;7.40;;;;;;;28.26;47.59;99617.66;5051399;28;20048;-66
2021/06/26 03:06:06;;;;;;;14.38;7.40;;;;;;;28.65;45.41;99607.41;5049430;28;20503;-67
2021/06/26 03:08:32;;;;;;;19.65;6.70;;;;;;;28.87;44.42;99606.09;5032933;28;20219;-65
2021/06/26 03:10:57;;;;;;;18.67;7.30;;;;;;;29.11;43.37;99600.91;5032942;28;20040;-66
2021/06/26 03:13:23;;;;;;;16.88;7.00;;;;;;;29.31;42.46;99586.19;5050209;28;20099;-64
2021/06/26 03:15:49;;;;;;;15.43;7.65;;;;;;;29.69;41.83;99600.19;5049798;28;20059;-65
2021/06/26 03:18:15;;;;;;;20.40;7.88;;;;;;;29.81;41.63;99593.53;5049616;28;20067;-63
2021/06/26 03:20:41;;;;;;;21.58;8.27;;;;;;;30.01;40.99;99600.34;5049998;28;20040;-66
2021/06/26 03:23:07;;;;;;;21.60;9.45;;;;;;;29.88;41.53;99605.34;5050740;28;20041;-65
2021/06/26 03:25:33;;;;;;;25.77;9.52;;;;;;;30.07;41.24;99608.81;5050279;28;20098;-66
2021/06/26 03:27:59;;;;;;;24.05;10.60;;;;;;;30.54;39.95;99600.97;5032756;28;20063;-65
2021/06/26 03:30:25;;;;;;;21.67;10.00;;;;;;;30.86;39.43;99597.41;5049516;28;20410;-66
2021/06/26 03:32:50;;;;;;;22.30;8.20;;;;;;;30.96;39.20;99600.78;5032676;28;20044;-71
2021/06/26 03:35:16;;;;;;;22.52;7.85;;;;;;;31.45;37.66;99590.75;4998934;28;20114;-84
2021/06/26 03:37:45;;;;;;;22.50;7.57;;;;;;;32.18;36.25;99593.13;5049861;28;20051;-75
2021/06/26 03:40:11;;;;;;;17.67;7.32;;;;;;;31.78;36.67;99569.81;5048950;28;20426;-66
2021/06/26 03:42:38;;;;;;;20.50;7.50;;;;;;;32.51;35.40;99588.31;5048387;28;20442;-62
2021/06/26 03:45:06;;;;;;;18.60;7.40;;;;;;;32.39;36.06;99588.94;5049950;28;20076;-62
2021/06/26 03:47:32;;;;;;;17.98;8.55;;;;;;;30.94;38.61;99592.00;5015387;28;20048;-65
2021/06/26 03:49:58;;;;;;;18.42;8.10;;;;;;;31.29;37.56;99593.50;5048647;28;20473;-63
2021/06/26 03:52:24;;;;;;;26.05;8.90;;;;;;;31.50;37.57;99592.91;5047972;28;20099;-63
2021/06/26 03:54:49;;;;;;;22.58;7.82;;;;;;;31.83;37.38;99597.19;5048463;28;20589;-63
2021/06/26 03:57:15;;;;;;;21.80;7.47;;;;;;;33.11;34.80;99584.75;5048461;28;20098;-61
2021/06/26 03:59:41;;;;;;;18.77;8.02;;;;;;;34.09;33.43;99595.28;5047033;28;20036;-63
2021/06/26 04:02:07;;;;;;;26.55;7.78;;;;;;;34.81;32.07;99594.34;5045583;28;20179;-61
2021/06/26 04:04:34;;;;;;;24.48;8.10;;;;;;;35.45;30.86;99594.22;5050855;28;20312;-61
2021/06/26 04:07:00;;;;;;;21.60;7.55;;;;;;;35.93;30.29;99592.38;5018608;28;20051;-62
2021/06/26 04:09:26;;;;;;;25.27;7.28;;;;;;;36.24;28.89;99596.44;5053748;28;20049;-63
2021/06/26 04:11:52;;;;;;;26.17;6.97;;;;;;;36.25;28.69;99581.78;5051044;28;20040;-62
2021/06/26 04:14:18;;;;;;;29.08;6.95;;;;;;;36.34;28.40;99602.34;5053728;28;20418;-62
2021/06/26 04:16:44;;;;;;;25.48;5.80;;;;;;;36.07;28.87;99595.13;5053881;28;20080;-62
2021/06/26 04:19:10;;;;;;;26.60;6.30;;;;;;;35.39;30.02;99581.41;5019529;28;20587;-62
2021/06/26 04:21:36;;;;;;;26.35;6.20;;;;;;;36.49;29.05;99596.75;5035471;28;20049;-62
2021/06/26 04:24:02;;;;;;;21.60;5.32;;;;;;;36.84;27.37;99592.78;5053337;28;20056;-62
2021/06/26 04:26:29;;;;;;;24.52;6.22;;;;;;;36.39;28.32;99582.66;5052107;28;20044;-62
2021/06/26 04:28:54;;;;;;;22.73;5.85;;;;;;;36.10;29.43;99595.56;5053006;28;20041;-62
2021/06/26 04:31:20;;;;;;;18.00;5.85;;;;;;;34.78;31.38;99583.84;5053014;28;20478;-60
2021/06/26 04:33:46;;;;;;;24.63;6.72;;;;;;;35.04;31.17;99584.13;5051744;28;20098;-69
2021/06/26 04:36:14;;;;;;;16.48;6.18;;;;;;;36.21;30.28;99592.25;5052673;28;20510;-61
2021/06/26 04:38:40;;;;;;;24.45;6.15;;;;;;;36.55;28.67;99593.19;5050016;28;20077;-63
2021/06/26 04:41:06;;;;;;;23.23;6.25;;;;;;;37.38;28.11;99591.69;5051342;28;20049;-63
2021/06/26 04:43:32;;;;;;;22.08;5.72;;;;;;;38.22;26.76;99598.97;5051535;28;20247;-63
2021/06/26 04:45:57;;;;;;;20.83;5.63;;;;;;;38.94;25.50;99594.88;5017684;28;20051;-63
2021/06/26 04:48:27;;;;;;;17.98;5.22;;;;;;;39.59;24.69;99598.03;5050621;28;20135;-61
2021/06/26 04:50:53;;;;;;;17.85;5.40;;;;;;;40.17;23.22;99610.41;5001596;28;20045;-62
2021/06/26 04:53:19;;;;;;;26.50;5.80;;;;;;;40.58;23.38;99601.34;5049822;28;20055;-64
2021/06/26 04:55:51;;;;;;;18.63;5.30;;;;;;;41.01;22.22;99606.59;5050780;28;20428;-65
2021/06/26 04:58:27;;;;;;;12.52;4.60;;;;;;;40.83;22.35;99610.25;5016591;28;20147;-65
2021/06/26 05:00:55;;;;;;;18.65;4.88;;;;;;;40.15;23.30;99612.53;5016000;28;20044;-65
2021/06/26 05:03:21;;;;;;;25.38;5.55;;;;;;;39.21;24.98;99609.16;5049787;28;20555;-66
2021/06/26 05:05:49;;;;;;;18.83;5.38;;;;;;;39.21;25.18;99603.69;5051488;28;20502;-65
2021/06/26 05:08:15;;;;;;;13.38;5.10;;;;;;;39.16;25.18;99614.47;5051776;28;20053;-67
2021/06/26 05:10:41;;;;;;;17.17;5.25;;;;;;;38.45;26.08;99598.38;5033050;28;20532;-64
2021/06/26 05:13:07;;;;;;;19.92;5.45;;;;;;;37.27;27.39;99600.53;5050759;28;20059;-65
2021/06/26 05:15:33;;;;;;;20.95;5.03;;;;;;;38.18;26.82;99613.28;5050510;28;20048;-66
2021/06/26 05:17:59;;;;;;;23.58;6.07;;;;;;;38.29;26.18;99602.50;5048681;28;20472;-64
2021/06/26 05:20:25;;;;;;;16.13;4.75;;;;;;;38.50;25.82;99603.19;5032222;28;20045;-66
2021/06/26 05:22:51;;;;;;;17.67;5.05;;;;;;;37.80;26.89;99600.38;5050171;28;20044;-65
2021/06/26 05:25:16;;;;;;;16.00;5.32;;;;;;;36.87;27.79;99605.16;5048286;28;20128;-66
2021/06/26 05:27:43;;;;;;;29.23;5.20;;;;;;;37.69;26.74;99591.00;5049332;28;20413;-66
2021/06/26 05:30:10;;;;;;;21.95;5.15;;;;;;;38.54;25.50;99598.94;5050002;28;20051;-66
2021/06/26 05:32:36;;;;;;;20.17;5.32;;;;;;;38.81;25.17;99595.00;5048950;28;20082;-66
2021/06/26 05:35:02;;;;;;;24.90;4.57;;;;;;;38.64;25.49;99600.16;5051329;28;20036;-65
2021/06/26 05:37:28;;;;;;;14.32;4.38;;;;;;;38.39;25.34;99591.06;5048517;28;20045;-65
2021/06/26 05:39:54;;;;;;;19.10;4.35;;;;;;;38.60;25.22;99601.66;5049701;28;20064;-69
2021/06/26 05:42:19;;;;;;;27.38;5.22;;;;;;;38.39;25.66;99596.53;5032706;28;20053;-65
2021/06/26 05:44:45;;;;;;;15.07;4.55;;;;;;;37.68;27.12;99600.19;5049070;28;20425;-65
2021/06/26 05:47:11;;;;;;;28.55;5.07;;;;;;;37.50;27.07;99600.91;5031178;28;20410;-65
2021/06/26 05:49:37;;;;;;;23.92;4.65;;;;;;;37.63;27.20;99601.91;5047387;28;20075;-66
2021/06/26 05:52:03;;;;;;;19.88;4.85;;;;;;;38.50;26.55;99592.25;5048379;28;20140;-65
2021/06/26 05:54:30;;;;;;;21.15;4.97;;;;;;;39.18;25.49;99598.66;5050107;28;20041;-65
2021/06/26 05:56:55;;;;;;;16.08;4.28;;;;;;;38.46;26.10;99594.59;5049402;28;20049;-66
2021/06/26 05:59:21;;;;;;;10.10;4.30;;;;;;;37.79;26.90;99574.97;5050911;28;20086;-66
2021/06/26 06:01:47;;;;;;;13.30;4.20;;;;;;;37.00;27.75;99579.75;5050146;28;20076;-67
2021/06/26 06:04:13;;;;;;;14.35;4.22;;;;;;;36.87;27.94;99569.72;5049475;28;20127;-65
2021/06/26 06:06:38;;;;;;;19.20;3.95;;;;;;;37.64;26.98;99570.81;5048586;28;20086;-67
2021/06/26 06:09:05;;;;;;;13.50;4.40;;;;;;;37.33;27.39;99574.28;5049252;28;20049;-65
2021/06/26 06:11:31;;;;;;;13.80;4.60;;;;;;;38.25;26.64;99573.09;5049492;28;20091;-65
2021/06/26 06:13:57;;;;;;;12.20;3.72;;;;;;;38.06;25.67;99559.31;5049289;28;20048;-65
2021/06/26 06:16:24;;;;;;;16.63;4.18;;;;;;;38.77;24.90;99580.94;5030722;28;20036;-64
2021/06/26 06:18:50;;;;;;;9.35;4.00;;;;;;;38.32;25.14;99571.16;5050034;28;20645;-65
2021/06/26 06:21:16;;;;;;;10.50;3.67;;;;;;;38.42;24.72;99572.31;5049652;28;20126;-65
2021/06/26 06:23:42;;;;;;;11.63;3.40;;;;;;;37.54;26.28;99558.47;5048341;28;20037;-67
2021/06/26 06:26:08;;;;;;;15.82;3.80;;;;;;;37.39;27.04;99571.53;5047211;28;20391;-66
2021/06/26 06:28:34;;;;;;;12.45;3.42;;;;;;;36.46;28.56;99572.63;5047688;28;20115;-65
2021/06/26 06:31:01;;;;;;;12.00;4.03;;;;;;;36.46;28.07;99568.03;5047933;28;20423;-65
2021/06/26 06:33:27;;;;;;;8.18;3.30;;;;;;;36.34;28.28;99568.81;5047096;28;20632;-63
2021/06/26 06:35:52;;;;;;;17.95;3.58;;;;;;;35.99;27.93;99555.31;5029952;28;20198;-65
2021/06/26 06:38:18;;;;;;;6.18;3.03;;;;;;;35.78;28.43;99564.44;5046653;28;20053;-65
2021/06/26 06:40:44;;;;;;;10.13;3.40;;;;;;;35.30;30.14;99556.22;5048430;28;20057;-65
2021/06/26 06:43:10;;;;;;;7.20;3.65;;;;;;;35.66;30.24;99561.44;5046439;28;20048;-66
2021/06/26 06:45:36;;;;;;;8.85;3.60;;;;;;;35.08;30.80;99567.41;5029440;28;20041;-67
2021/06/26 06:48:02;;;;;;;10.50;3.95;;;;;;;35.10;30.99;99565.31;5048372;28;20461;-66
2021/06/26 06:50:27;;;;;;;11.70;3.53;;;;;;;34.68;31.41;99553.47;5046321;28;20528;-66
2021/06/26 06:52:54;;;;;;;6.97;2.92;;;;;;;35.05;30.43;99560.47;5045799;28;20052;-68
2021/06/26 06:55:20;;;;;;;9.55;3.58;;;;;;;35.09;29.58;99559.03;5046655;28;20518;-66
2021/06/26 06:57:45;;;;;;;5.93;2.85;;;;;;;34.48;28.21;99544.31;5046656;28;20076;-65
2021/06/26 07:00:12;;;;;;;10.25;3.20;;;;;;;34.29;29.93;99565.66;5045603;28;20063;-67
2021/06/26 07:02:39;;;;;;;10.98;3.20;;;;;;;33.74;30.51;99560.81;5047928;28;20616;-65
2021/06/26 07:05:05;;;;;;;7.07;3.20;;;;;;;33.74;30.42;99548.09;5011939;28;20086;-66
2021/06/26 07:07:31;;;;;;;11.52;3.50;;;;;;;33.53;31.50;99556.19;5047587;28;20127;-66
2021/06/26 07:09:57;;;;;;;11.10;3.58;;;;;;;34.09;30.66;99551.00;5045743;28;20136;-66
2021/06/26 07:12:23;;;;;;;12.63;4.15;;;;;;;35.31;28.72;99535.31;5048314;28;20048;-66
2021/06/26 07:14:48;;;;;;;8.48;3.53;;;;;;;36.65;27.49;99560.06;5048860;28;20037;-67
2021/06/26 07:17:14;;;;;;;6.90;3.05;;;;;;;37.91;24.92;99550.56;5031810;28;20442;-65
2021/06/26 07:19:40;;;;;;;9.07;3.28;;;;;;;37.54;24.92;99541.25;5048477;28;20052;-67
2021/06/26 07:22:07;;;;;;;10.27;3.20;;;;;;;37.79;25.17;99558.59;5048221;28;20041;-65
2021/06/26 07:24:33;;;;;;;14.38;3.58;;;;;;;37.92;24.74;99546.78;5048170;28;20414;-66
2021/06/26 07:26:58;;;;;;;14.25;4.10;;;;;;;39.07;23.55;99558.34;5046233;28;20425;-67
2021/06/26 07:29:24;;;;;;;5.97;3.50;;;;;;;40.31;22.97;99551.56;5048848;28;20049;-65
2021/06/26 07:31:50;;;;;;;16.83;4.20;;;;;;;39.79;23.68;99553.97;5046882;28;20036;-65
2021/06/26 07:34:17;;;;;;;10.77;3.53;;;;;;;39.89;23.11;99559.72;5048264;28;20053;-66
2021/06/26 07:36:43;;;;;;;13.38;3.83;;;;;;;40.51;22.35;99568.56;5049125;28;20033;-66
2021/06/26 07:39:08;;;;;;;16.15;4.05;;;;;;;41.01;22.52;99573.66;5049528;28;20056;-66
2021/06/26 07:41:34;;;;;;;17.35;4.00;;;;;;;41.53;22.17;99581.94;5050080;28;20144;-64
2021/06/26 07:44:00;;;;;;;11.90;3.92;;;;;;;41.62;21.70;99565.91;5049321;28;20041;-67
2021/06/26 07:46:26;;;;;;;14.95;4.15;;;;;;;41.49;20.96;99576.09;5048799;28;20048;-66
2021/06/26 07:48:52;;;;;;;12.32;4.05;;;;;;;41.11;21.38;99564.81;5047836;28;20418;-66
2021/06/26 07:51:18;;;;;;;9.50;3.97;;;;;;;41.39;21.08;99551.19;5048403;28;20082;-67
2021/06/26 07:53:44;;;;;;;7.97;3.28;;;;;;;42.21;18.41;99561.91;5050147;28;20069;-66
2021/06/26 07:56:10;;;;;;;10.40;3.22;;;;;;;42.65;18.14;99570.41;5050376;28;20469;-65
2021/06/26 07:58:35;;;;;;;10.10;3.13;;;;;;;43.19;17.45;99567.97;5048716;28;20102;-67
2021/06/26 08:01:01;;;;;;;11.65;3.00;;;;;;;43.26;17.77;99566.72;5050141;28;20522;-66
2021/06/26 08:03:27;;;;;;;8.63;3.38;;;;;;;43.01;18.19;99567.16;5049754;28;20474;-68
2021/06/26 08:05:53;;;;;;;12.13;3.00;;;;;;;42.26;18.83;99558.41;5033466;28;20491;-67
2021/06/26 08:08:19;;;;;;;13.68;3.10;;;;;;;42.52;18.04;99560.59;5051023;28;20453;-66
2021/06/26 08:10:46;;;;;;;13.20;3.00;;;;;;;43.02;17.84;99563.31;5050747;28;20045;-66
2021/06/26 08:13:15;;;;;;;14.30;3.10;;;;;;;42.00;18.68;99548.84;5050808;28;20577;-67
2021/06/26 08:15:42;;;;;;;10.63;3.67;;;;;;;42.80;17.95;99560.47;5048154;28;20041;-67
2021/06/26 08:18:09;;;;;;;15.07;3.80;;;;;;;42.90;17.39;99547.97;5016383;28;20041;-66
2021/06/26 08:20:35;;;;;;;12.73;3.50;;;;;;;43.17;17.24;99564.63;4999439;28;20479;-68
2021/06/26 08:23:02;;;;;;;12.00;3.30;;;;;;;43.06;17.27;99544.34;5051144;28;20059;-68
2021/06/26 08:25:28;;;;;;;9.48;2.60;;;;;;;43.24;16.55;99559.78;4999870;28;20037;-66
2021/06/26 08:27:54;;;;;;;8.00;2.80;;;;;;;43.03;16.98;99548.44;5050185;28;20060;-67
2021/06/26 08:30:21;;;;;;;14.35;3.10;;;;;;;42.66;17.33;99547.31;5049802;28;20089;-67
2021/06/26 08:32:48;;;;;;;10.15;3.35;;;;;;;42.74;17.18;99549.66;5051394;28;20560;-67
2021/06/26 08:35:14;;;;;;;15.20;3.33;;;;;;;41.71;18.54;99537.03;5051025;28;20069;-68
2021/06/26 08:37:43;;;;;;;9.95;3.08;;;;;;;41.53;18.45;99548.97;5051292;28;20601;-67
2021/06/26 08:40:09;;;;;;;8.15;2.78;;;;;;;41.12;18.21;99531.63;5049818;28;20147;-67
2021/06/26 08:42:35;;;;;;;10.75;3.22;;;;;;;41.56;17.56;99543.00;5032148;28;20434;-66
2021/06/26 08:45:04;;;;;;;10.05;3.47;;;;;;;41.92;17.88;99521.78;5050281;28;20045;-64
2021/06/26 08:47:29;;;;;;;10.70;3.42;;;;;;;42.35;17.91;99532.19;5049416;28;20056;-65
2021/06/26 08:49:55;;;;;;;13.52;3.28;;;;;;;42.70;17.59;99529.22;5048113;28;20449;-67
2021/06/26 08:52:22;;;;;;;14.63;3.53;;;;;;;42.79;17.05;99527.69;5048882;28;20127;-67
2021/06/26 08:54:52;;;;;;;18.33;3.67;;;;;;;42.76;16.58;99519.94;5032526;28;20048;-66
2021/06/26 08:57:28;;;;;;;14.15;3.20;;;;;;;42.30;16.75;99521.09;5046931;28;20037;-69
2021/06/26 08:59:54;;;;;;;9.07;2.50;;;;;;;40.68;18.02;99518.47;5046678;28;20045;-65
2021/06/26 09:02:22;;;;;;;7.95;2.95;;;;;;;40.68;18.34;99522.06;5050909;28;20037;-66
2021/06/26 09:04:47;;;;;;;9.32;2.80;;;;;;;39.54;19.09;99507.53;5049658;28;20485;-64
2021/06/26 09:07:13;;;;;;;10.27;2.92;;;;;;;38.92;20.08;99498.50;5015292;28;20037;-66
2021/06/26 09:09:39;;;;;;;10.38;3.55;;;;;;;39.29;20.08;99515.78;5047413;28;20049;-66
2021/06/26 09:12:08;;;;;;;13.45;3.38;;;;;;;38.95;20.68;99513.63;5049820;28;20421;-65
2021/06/26 09:14:35;;;;;;;9.88;3.10;;;;;;;38.84;20.41;99514.38;5031294;28;20051;-66
2021/06/26 09:17:01;;;;;;;13.40;3.40;;;;;;;38.76;20.79;99494.47;5049246;28;20044;-65
2021/06/26 09:19:29;;;;;;;15.38;3.70;;;;;;;38.24;21.81;99494.91;5049493;28;20049;-68
2021/06/26 09:22:06;;;;;;;9.77;3.28;;;;;;;37.46;22.37;99501.41;5031068;28;20040;-66
2021/06/26 09:24:43;;;;;;;9.15;3.50;;;;;;;36.10;23.63;99513.88;5048757;28;20485;-65
2021/06/26 09:27:12;;;;;;;9.50;3.13;;;;;;;35.86;23.39;99500.84;5049786;28;20053;-66
2021/06/26 09:29:54;;;;;;;7.50;3.03;;;;;;;35.48;24.01;99493.13;5048862;28;20090;-66
2021/06/26 09:32:25;;;;;;;11.93;3.95;;;;;;;35.13;25.32;99500.50;5047564;28;20048;-67
2021/06/26 09:34:52;;;;;;;9.45;3.20;;;;;;;34.67;25.93;99483.84;5049672;28;20051;-68
2021/06/26 09:37:27;;;;;;;9.90;3.20;;;;;;;34.81;25.02;99496.50;5030559;28;20045;-65
2021/06/26 09:39:55;;;;;;;8.82;2.90;;;;;;;34.97;25.75;99492.66;5047982;28;20068;-65
2021/06/26 09:42:26;;;;;;;7.60;2.90;;;;;;;35.10;24.42;99500.06;5048070;28;20119;-65
2021/06/26 09:44:56;;;;;;;11.53;2.87;;;;;;;35.00;24.53;99495.00;4996918;28;20045;-65
2021/06/26 09:47:28;;;;;;;9.73;3.30;;;;;;;34.74;25.55;99484.72;5046811;28;20329;-67
2021/06/26 09:49:54;;;;;;;12.95;3.30;;;;;;;34.12;25.75;99480.03;5048026;28;20131;-67
2021/06/26 09:52:20;;;;;;;8.82;3.33;;;;;;;33.85;26.65;99483.53;5047251;28;20179;-65
2021/06/26 09:54:46;;;;;;;10.20;3.17;;;;;;;33.82;27.04;99481.19;5047770;28;20037;-64
2021/06/26 09:57:11;;;;;;;7.22;3.00;;;;;;;34.07;26.80;99482.47;5013626;28;20142;-65
2021/06/26 09:59:37;;;;;;;13.50;3.60;;;;;;;34.38;26.94;99468.59;5046390;28;20040;-66
2021/06/26 10:02:03;;;;;;;12.20;2.85;;;;;;;34.71;26.26;99474.25;5045404;28;20041;-66
2021/06/26 10:04:29;;;;;;;8.32;2.95;;;;;;;34.70;25.23;99459.00;5047144;28;20141;-67
2021/06/26 10:06:56;;;;;;;11.52;3.05;;;;;;;34.50;25.59;99466.19;5047794;28;20382;-65
2021/06/26 10:09:22;;;;;;;8.32;3.20;;;;;;;34.28;25.72;99470.78;5047439;28;20049;-67
2021/06/26 10:11:49;;;;;;;16.17;3.15;;;;;;;34.50;25.92;99458.03;5045001;28;20084;-65
2021/06/26 10:14:15;;;;;;;8.27;3.47;;;;;;;34.58;26.23;99466.88;5046900;28;20091;-65
2021/06/26 10:16:42;;;;;;;13.77;3.33;;;;;;;34.71;25.31;99474.25;5030012;28;20036;-63
2021/06/26 10:19:10;;;;;;;14.15;3.53;;;;;;;34.72;25.49;99455.03;5047786;28;20179;-66
2021/06/26 10:21:36;;;;;;;8.73;3.50;;;;;;;34.68;26.42;99466.50;5048313;28;20052;-66
2021/06/26 10:24:04;;;;;;;12.80;3.15;;;;;;;34.03;26.58;99443.19;5047525;28;20041;-66
2021/06/26 10:26:36;;;;;;;6.70;3.10;;;;;;;33.70;26.95;99448.28;5049507;28;20053;-68
2021/06/26 10:29:02;;;;;;;6.82;3.28;;;;;;;33.31;26.96;99449.50;5047717;28;20645;-67
2021/06/26 10:31:32;;;;;;;13.15;3.40;;;;;;;33.35;27.82;99450.78;5030275;28;20040;-66
2021/06/26 10:34:14;;;;;;;10.95;3.55;;;;;;;33.44;27.49;99470.50;5049760;28;20049;-67
2021/06/26 10:36:45;;;;;;;8.65;3.40;;;;;;;33.59;28.14;99473.19;5013463;28;20045;-67
2021/06/26 10:39:20;;;;;;;5.57;3.60;;;;;;;33.99;26.79;99452.75;5048136;28;20502;-65
2021/06/26 10:41:57;;;;;;;8.80;3.58;;;;;;;33.45;27.35;99445.94;5014681;28;20835;-67
2021/06/26 10:44:24;;;;;;;9.98;3.63;;;;;;;33.75;28.00;99457.50;5048079;28;20037;-67
2021/06/26 10:46:50;;;;;;;13.80;3.70;;;;;;;33.96;27.29;99453.97;5047558;28;20056;-67
2021/06/26 10:49:27;;;;;;;11.07;4.32;;;;;;;33.73;27.84;99456.88;5047453;28;20044;-68
2021/06/26 10:51:53;;;;;;;12.23;4.40;;;;;;;33.57;27.75;99457.13;5046947;28;20049;-64
2021/06/26 10:54:20;;;;;;;10.35;3.97;;;;;;;33.37;27.90;99450.59;5045532;28;20457;-65
2021/06/26 10:56:49;;;;;;;11.30;4.18;;;;;;;33.83;27.90;99459.28;5030271;28;20079;-65
2021/06/26 10:59:19;;;;;;;13.45;3.83;;;;;;;34.14;27.43;99450.81;5048530;28;20048;-63
2021/06/26 11:02:00;;;;;;;7.85;3.80;;;;;;;34.53;26.55;99454.91;5030646;28;20055;-66
2021/06/26 11:04:26;;;;;;;21.92;4.50;;;;;;;34.79;27.08;99455.06;5047437;28;20395;-65
2021/06/26 11:07:07;;;;;;;13.77;3.80;;;;;;;34.38;26.19;99461.28;5046266;28;20049;-66
2021/06/26 11:09:38;;;;;;;11.07;4.10;;;;;;;33.76;26.62;99456.47;5030476;28;20040;-65
2021/06/26 11:12:09;;;;;;;12.05;3.83;;;;;;;33.43;27.81;99444.41;5049194;28;20091;-65
2021/06/26 11:14:35;;;;;;;;;;;;;;;33.32;27.80;99448.47;5034200;28;20452;-64
2021/06/26 11:17:00;;;;;;;10.57;3.50;;;;;;;33.13;28.33;99436.31;5049799;28;19920;-66
2021/06/26 11:19:32;;;;;;;10.88;4.15;;;;;;;32.88;28.22;99432.22;5051454;28;20037;-65
2021/06/26 11:21:59;;;;;;;12.27;3.95;;;;;;;32.94;28.44;99434.19;5051120;28;20110;-67
2021/06/26 11:24:42;;;;;;;13.35;3.88;;;;;;;32.94;28.34;99422.50;5050031;28;20076;-67